Ede, Netherlands
Current Conditions -  °F | °C
As of 11:25 AM on Sunday 26 Oct 2014 (Local Time) from EHDL Reporting Station
Overcast Overcast  
Wind Chill: 55°   Ceiling: 4200
Heat Index: 55°   Visibility: 6mi
Dew Point: 52°   Wind: 10mph
Humidity: 88%   Direction: 200°SSW
Pressure: 30.24"   Gusts: NA
Location:  52.03°N, 5.66°E
Report Text: EHDL 260925Z AUTO 20009KT 9999 OVC042 13/11 Q1024 BLU
Loading
Personal Weather Stations






























Interactive Weather Map
Tropical Storm Tracking
New forecast layout! Learn more

10-Day Weather Forecast

Advertisements
Track Severe Weather on mobile